الصفحة الرئيسية
METAR-TAF:

METAR-TAF

مطار :

مطار كلارك الدولي

Angeles, الفلبين

دائرة عرض: 15-11N, خط طول: 120-33E, ارتفاع: 148 متر

مراقبة الطقس الحالي

تاريخ ووقت الإصدار 41 دقيقة قبل الساعة 18:00UTC
ريح 2 عقدة من الشمال الغربي
درجة الحرارة 25°درجة مئوية
الرطوبة 83%
ضغط 1014 hPa
الرؤية 10 كم أو أكثر
غيوم قليلة على ارتفاع 2000 قدم
غيوم متفرقة على ارتفاع 30000 قدم

METAR: RPLC 141800Z 32002KT 9999 FEW020 SCT300 25/22 Q1014 NOSIG RMK A2994

زمن: 02:41 (18:41 UTC)

توقعات

تاريخ ووقت الإصدار 1ساعة و 41 دقيقة قبل الساعة 17:00UTC
التوقعات صالحة من14 الساعة 18 UTC إلى 15 الساعة 24 UTC
ريح 6 عقدة من الشمال الشرقي
الرؤية 10 كم أو أكثر
غيوم قليلة على ارتفاع 2000 قدم
غيوم مفككة على ارتفاع 30000 قدم
مؤقت
من 14 الساعة 18 UTC إلى 14 الساعة 24 UTC
ريح 6 عقدة من الشمال
غيوم متفرقة على ارتفاع 2000 قدم
غيوم مفككة على ارتفاع 10000 قدم

TAF: RPLC 141700Z 1418/1524 05006KT 9999 FEW020 BKN300 TX31/1506Z TN24/1422Z TEMPO 1418/1424 35006KT SCT020 BKN100

أرصاد الطقس والتوقعات من أكثر من 4000 مطار (تقارير الطقس للمطار METAR والتنبؤ بالطقس بالمطارTAF).

المحطات المتاحة هي النقط الصفراء والحمراء على الخريطة.

حرك المؤشر فوق النقطة لمعرفة اسم المحطة.

ثم انقر لمعرفة أرصاد وتوقعات الطقس.

لتغيير الخارطة: اضغط على الأزرار الخضراء مع رمز الصليب الأسود للتكبير. على الزر الأخضر مع شرطة للتصغير، أو على الأسهم الخضراء للخرائط المجاورة.


METAR-TAF: